Rancho Mirage, California
Current Conditions -  °F | °C
As of 11:53 PM on Sunday 25 Jan 2015 (Local Time) from KPSP Reporting Station
Clear Clear  
Wind Chill: 63°   Ceiling: Unl
Heat Index: 63°   Visibility: 10mi
Dew Point: 31°   Wind: 7mph
Humidity: 30%   Direction: 320°NW
Pressure: 30.08"   Gusts: NA
Location:  33.77°N, 116.44°W
Report Text: KPSP 260753Z AUTO 32006KT 10SM CLR 17/M01 A3008 RMK AO2 SLP183 T01721006 402780156 TSNO
Loading
Personal Weather Stations






























Interactive Weather Map New forecast layout! Learn more

10-Day Weather Forecast

Advertisements
Track Severe Weather on mobile